Station Historical Data
Daily Summary for November 25, 2017 Units:  English    Metric   Both
« Previous Day
Next Day »
Daily Weekly Monthly Yearly Custom
  High: Low: Average:
Temperature: 63.9 °F 52.9 °F 57.1 °F
Dew Point: 50.3 °F 32.6 °F 41.7 °F
Humidity: 68 % 42 % 57 %
Wind Speed: 14.0 mph 0.0 mph 3.5 mph
Wind Gust: 20.0 mph - -
Wind:- - ESE
Pressure: 30.09 in 30.01 in -
Precipitation: 0.00 in    
Historical Graphs
 
 
Tabular Data for November 25, 2017
Time Temperature Dew Point Pressure Wind Wind Speed Wind Gust Humidity Rainfall Rate (Hourly) solar
00:04 55.7 °F 43.3 °F 30.09 in Calm   6.0 mph 63 % 0.00 in 0.00 W/m2
00:09 55.7 °F 42.5 °F 30.08 in Calm   6.0 mph 61 % 0.00 in 0.00 W/m2
00:14 55.7 °F 43.3 °F 30.08 in East 4.0 mph 6.0 mph 63 % 0.00 in 0.00 W/m2
00:19 55.7 °F 43.3 °F 30.09 in Calm   4.0 mph 63 % 0.00 in 0.00 W/m2
00:24 55.7 °F 43.3 °F 30.08 in East 2.0 mph 5.0 mph 63 % 0.00 in 0.00 W/m2
00:29 55.6 °F 43.2 °F 30.08 in East 1.0 mph 7.0 mph 63 % 0.00 in 0.00 W/m2
00:34 55.5 °F 43.1 °F 30.08 in Calm   9.0 mph 63 % 0.00 in 0.00 W/m2
00:39 55.4 °F 43.0 °F 30.08 in ESE 4.0 mph 9.0 mph 63 % 0.00 in 0.00 W/m2
00:44 55.4 °F 42.6 °F 30.08 in ESE 4.0 mph 11.0 mph 62 % 0.00 in 0.00 W/m2
00:49 55.3 °F 42.1 °F 30.08 in Calm   8.0 mph 61 % 0.00 in 0.00 W/m2
00:54 55.3 °F 42.5 °F 30.08 in East 2.0 mph 9.0 mph 62 % 0.00 in 0.00 W/m2
00:59 55.3 °F 42.1 °F 30.08 in ESE 6.0 mph 8.0 mph 61 % 0.00 in 0.00 W/m2
01:04 55.3 °F 42.5 °F 30.07 in East 5.0 mph 11.0 mph 62 % 0.00 in 0.00 W/m2
01:09 55.3 °F 42.1 °F 30.07 in ESE 4.0 mph 8.0 mph 61 % 0.00 in 0.00 W/m2
01:14 55.3 °F 42.1 °F 30.07 in ESE 4.0 mph 7.0 mph 61 % 0.00 in 0.00 W/m2
01:19 55.2 °F 42.0 °F 30.06 in East 8.0 mph 11.0 mph 61 % 0.00 in 0.00 W/m2
01:24 55.1 °F 41.9 °F 30.06 in ESE 5.0 mph 9.0 mph 61 % 0.00 in 0.00 W/m2
01:29 55.0 °F 41.8 °F 30.06 in Calm   11.0 mph 61 % 0.00 in 0.00 W/m2
01:34 54.9 °F 41.3 °F 30.05 in East 4.0 mph 14.0 mph 60 % 0.00 in 0.00 W/m2
01:39 54.9 °F 40.4 °F 30.05 in East 4.0 mph 15.0 mph 58 % 0.00 in 0.00 W/m2
01:44 54.8 °F 40.8 °F 30.05 in East 8.0 mph 15.0 mph 59 % 0.00 in 0.00 W/m2
01:49 54.8 °F 41.2 °F 30.05 in East 9.0 mph 15.0 mph 60 % 0.00 in 0.00 W/m2
01:54 54.7 °F 39.8 °F 30.04 in East 6.0 mph 13.0 mph 57 % 0.00 in 0.00 W/m2
01:59 54.7 °F 37.9 °F 30.05 in ESE 7.0 mph 12.0 mph 53 % 0.00 in 0.00 W/m2
02:04 54.8 °F 38.5 °F 30.05 in ESE 6.0 mph 15.0 mph 54 % 0.00 in 0.00 W/m2
02:09 54.9 °F 38.1 °F 30.05 in East 6.0 mph 14.0 mph 53 % 0.00 in 0.00 W/m2
02:14 55.0 °F 39.2 °F 30.05 in ESE 1.0 mph 12.0 mph 55 % 0.00 in 0.00 W/m2
02:19 55.0 °F 38.2 °F 30.04 in ESE 4.0 mph 13.0 mph 53 % 0.00 in 0.00 W/m2
02:24 55.1 °F 38.3 °F 30.03 in ESE 7.0 mph 14.0 mph 53 % 0.00 in 0.00 W/m2
02:30 55.1 °F 37.8 °F 30.03 in ESE 2.0 mph 18.0 mph 52 % 0.00 in 0.00 W/m2
02:35 55.1 °F 37.3 °F 30.03 in East 10.0 mph 20.0 mph 51 % 0.00 in 0.00 W/m2
02:40 55.1 °F 36.3 °F 30.03 in East 11.0 mph 19.0 mph 49 % 0.00 in 0.00 W/m2
02:45 55.2 °F 36.4 °F 30.04 in SE 4.0 mph 20.0 mph 49 % 0.00 in 0.00 W/m2
02:50 55.3 °F 36.5 °F 30.04 in ESE 9.0 mph 15.0 mph 49 % 0.00 in 0.00 W/m2
02:51 55.3 °F 36.0 °F 30.04 in East 4.0 mph 20.0 mph 48 % 0.00 in 0.00 W/m2
02:56 55.4 °F 36.1 °F 30.04 in ESE 5.0 mph 14.0 mph 48 % 0.00 in 0.00 W/m2
03:01 55.4 °F 36.1 °F 30.04 in East 8.0 mph 15.0 mph 48 % 0.00 in 0.00 W/m2
03:06 55.4 °F 36.6 °F 30.04 in ESE 2.0 mph 12.0 mph 49 % 0.00 in 0.00 W/m2
03:11 55.4 °F 37.1 °F 30.03 in SE 5.0 mph 18.0 mph 50 % 0.00 in 0.00 W/m2
03:16 55.4 °F 36.1 °F 30.03 in ESE 9.0 mph 12.0 mph 48 % 0.00 in 0.00 W/m2
03:21 55.4 °F 36.6 °F 30.03 in ESE 4.0 mph 12.0 mph 49 % 0.00 in 0.00 W/m2
03:26 55.4 °F 36.6 °F 30.03 in ESE 2.0 mph 9.0 mph 49 % 0.00 in 0.00 W/m2
03:31 55.4 °F 33.9 °F 30.04 in ESE 2.0 mph 9.0 mph 44 % 0.00 in 0.00 W/m2
03:36 55.4 °F 35.0 °F 30.04 in East 11.0 mph 11.0 mph 46 % 0.00 in 0.00 W/m2
03:41 55.3 °F 32.6 °F 30.04 in Calm   8.0 mph 42 % 0.00 in 0.00 W/m2
03:46 55.4 °F 36.1 °F 30.04 in ESE 6.0 mph 9.0 mph 48 % 0.00 in 0.00 W/m2
03:51 55.3 °F 36.0 °F 30.04 in Calm   8.0 mph 48 % 0.00 in 0.00 W/m2
03:56 55.2 °F 35.3 °F 30.04 in Calm   11.0 mph 47 % 0.00 in 0.00 W/m2
04:02 55.1 °F 35.8 °F 30.04 in ESE 4.0 mph 9.0 mph 48 % 0.00 in 0.00 W/m2
04:07 55.0 °F 34.6 °F 30.04 in ESE 7.0 mph 7.0 mph 46 % 0.00 in 0.00 W/m2
04:12 54.9 °F 35.1 °F 30.04 in ESE 6.0 mph 6.0 mph 47 % 0.00 in 0.00 W/m2
04:17 54.8 °F 36.0 °F 30.04 in ESE 6.0 mph 8.0 mph 49 % 0.00 in 0.00 W/m2
04:22 54.6 °F 35.3 °F 30.04 in East 7.0 mph 8.0 mph 48 % 0.00 in 0.00 W/m2
04:27 54.4 °F 35.1 °F 30.04 in ESE 6.0 mph 7.0 mph 48 % 0.00 in 0.00 W/m2
04:32 54.3 °F 36.1 °F 30.04 in ESE 2.0 mph 7.0 mph 50 % 0.00 in 0.00 W/m2
04:37 54.2 °F 33.3 °F 30.04 in Calm   7.0 mph 45 % 0.00 in 0.00 W/m2
04:42 54.2 °F 35.0 °F 30.04 in ESE 8.0 mph 9.0 mph 48 % 0.00 in 0.00 W/m2
04:47 54.2 °F 34.4 °F 30.04 in ESE 2.0 mph 8.0 mph 47 % 0.00 in 0.00 W/m2
04:52 54.2 °F 36.5 °F 30.04 in ESE 5.0 mph 8.0 mph 51 % 0.00 in 0.00 W/m2
04:57 54.1 °F 36.4 °F 30.03 in Calm   9.0 mph 51 % 0.00 in 0.00 W/m2
05:02 53.9 °F 35.7 °F 30.03 in ESE 8.0 mph 13.0 mph 50 % 0.00 in 0.00 W/m2
05:07 53.9 °F 36.2 °F 30.03 in ESE 7.0 mph 11.0 mph 51 % 0.00 in 0.00 W/m2
05:12 53.8 °F 36.6 °F 30.03 in ESE 11.0 mph 13.0 mph 52 % 0.00 in 0.00 W/m2
05:17 53.8 °F 36.1 °F 30.03 in ESE 4.0 mph 11.0 mph 51 % 0.00 in 0.00 W/m2
05:22 53.8 °F 35.6 °F 30.03 in SE 7.0 mph 12.0 mph 50 % 0.00 in 0.00 W/m2
05:27 53.9 °F 35.7 °F 30.03 in ESE 14.0 mph 14.0 mph 50 % 0.00 in 0.00 W/m2
05:32 53.9 °F 35.2 °F 30.03 in SE 2.0 mph 12.0 mph 49 % 0.00 in 0.00 W/m2
05:37 53.9 °F 35.2 °F 30.03 in SE 4.0 mph 11.0 mph 49 % 0.00 in 0.00 W/m2
05:42 53.9 °F 35.2 °F 30.03 in East 9.0 mph 12.0 mph 49 % 0.00 in 0.00 W/m2
05:47 53.9 °F 34.7 °F 30.03 in ESE 1.0 mph 9.0 mph 48 % 0.00 in 0.00 W/m2
05:52 53.9 °F 34.7 °F 30.04 in Calm   11.0 mph 48 % 0.00 in 0.00 W/m2
05:57 53.9 °F 34.2 °F 30.03 in ESE 5.0 mph 7.0 mph 47 % 0.00 in 0.00 W/m2
06:02 53.8 °F 36.1 °F 30.03 in ESE 6.0 mph 14.0 mph 51 % 0.00 in 0.00 W/m2
06:07 53.8 °F 36.6 °F 30.03 in ESE 5.0 mph 12.0 mph 52 % 0.00 in 0.00 W/m2
06:13 53.7 °F 36.0 °F 30.03 in East 6.0 mph 11.0 mph 51 % 0.00 in 0.00 W/m2
06:18 53.6 °F 35.4 °F 30.03 in ESE 1.0 mph 14.0 mph 50 % 0.00 in 0.00 W/m2
06:23 53.5 °F 35.8 °F 30.03 in Calm   18.0 mph 51 % 0.00 in 0.00 W/m2
06:28 53.4 °F 34.7 °F 30.03 in East 5.0 mph 12.0 mph 49 % 0.00 in 0.00 W/m2
06:33 53.4 °F 34.7 °F 30.03 in ESE 6.0 mph 9.0 mph 49 % 0.00 in 0.00 W/m2
06:38 53.3 °F 34.7 °F 30.03 in ESE 4.0 mph 11.0 mph 49 % 0.00 in 0.00 W/m2
06:43 53.3 °F 34.7 °F 30.04 in East 9.0 mph 11.0 mph 49 % 0.00 in 0.00 W/m2
06:48 53.3 °F 35.7 °F 30.04 in East 5.0 mph 12.0 mph 51 % 0.00 in 0.00 W/m2
06:53 53.2 °F 35.6 °F 30.04 in ESE 5.0 mph 11.0 mph 51 % 0.00 in 0.00 W/m2
06:58 53.2 °F 35.1 °F 30.05 in Calm   11.0 mph 50 % 0.00 in 5.00 W/m2
07:03 53.1 °F 34.5 °F 30.05 in ESE 2.0 mph 6.0 mph 49 % 0.00 in 9.00 W/m2
07:08 53.1 °F 35.5 °F 30.05 in ESE 1.0 mph 8.0 mph 51 % 0.00 in 14.00 W/m2
07:13 53.0 °F 35.4 °F 30.05 in East 2.0 mph 9.0 mph 51 % 0.00 in 23.00 W/m2
07:18 53.0 °F 34.9 °F 30.05 in ESE 2.0 mph 8.0 mph 50 % 0.00 in 28.00 W/m2
07:23 52.9 °F 35.3 °F 30.05 in Calm   6.0 mph 51 % 0.00 in 33.00 W/m2
07:28 52.9 °F 35.3 °F 30.06 in Calm   8.0 mph 51 % 0.00 in 35.00 W/m2
07:33 52.9 °F 36.2 °F 30.05 in ESE 11.0 mph 11.0 mph 53 % 0.00 in 42.00 W/m2
07:38 52.9 °F 36.2 °F 30.05 in Calm   12.0 mph 53 % 0.00 in 53.00 W/m2
07:43 52.9 °F 36.7 °F 30.05 in East 1.0 mph 8.0 mph 54 % 0.00 in 56.00 W/m2
07:48 53.0 °F 37.3 °F 30.05 in ESE 2.0 mph 11.0 mph 55 % 0.00 in 53.00 W/m2
07:53 53.0 °F 36.8 °F 30.05 in East 9.0 mph 15.0 mph 54 % 0.00 in 53.00 W/m2
07:58 53.1 °F 35.0 °F 30.05 in ESE 1.0 mph 16.0 mph 50 % 0.00 in 60.00 W/m2
08:03 53.3 °F 36.6 °F 30.05 in East 9.0 mph 13.0 mph 53 % 0.00 in 67.00 W/m2
08:08 53.5 °F 36.3 °F 30.05 in SE 11.0 mph 12.0 mph 52 % 0.00 in 69.00 W/m2
08:13 53.7 °F 36.5 °F 30.05 in SE 7.0 mph 13.0 mph 52 % 0.00 in 79.00 W/m2
08:18 53.9 °F 36.2 °F 30.05 in SE 9.0 mph 13.0 mph 51 % 0.00 in 93.00 W/m2
08:23 54.1 °F 36.9 °F 30.05 in East 8.0 mph 13.0 mph 52 % 0.00 in 109.00 W/m2
08:28 54.2 °F 36.0 °F 30.05 in East 13.0 mph 13.0 mph 50 % 0.00 in 111.00 W/m2
08:33 54.4 °F 35.7 °F 30.05 in ESE 5.0 mph 13.0 mph 49 % 0.00 in 120.00 W/m2
08:38 54.6 °F 35.8 °F 30.05 in Calm   13.0 mph 49 % 0.00 in 123.00 W/m2
08:43 54.8 °F 36.0 °F 30.05 in ESE 2.0 mph 12.0 mph 49 % 0.00 in 141.00 W/m2
08:48 55.0 °F 36.2 °F 30.06 in Calm   9.0 mph 49 % 0.00 in 158.00 W/m2
08:49 55.0 °F 36.2 °F 30.05 in ESE 2.0 mph 9.0 mph 49 % 0.00 in 155.00 W/m2
08:54 55.2 °F 36.9 °F 30.05 in ESE 5.0 mph 18.0 mph 50 % 0.00 in 160.00 W/m2
08:59 55.3 °F 37.0 °F 30.05 in ESE 6.0 mph 14.0 mph 50 % 0.00 in 171.00 W/m2
09:04 55.4 °F 37.1 °F 30.05 in ESE 7.0 mph 12.0 mph 50 % 0.00 in 162.00 W/m2
09:09 55.5 °F 37.2 °F 30.05 in Calm   12.0 mph 50 % 0.00 in 165.00 W/m2
09:14 55.7 °F 37.9 °F 30.06 in Calm   11.0 mph 51 % 0.00 in 183.00 W/m2
09:19 55.7 °F 37.9 °F 30.06 in Calm   7.0 mph 51 % 0.00 in 227.00 W/m2
09:29 55.9 °F 39.5 °F 30.06 in Calm   6.0 mph 54 % 0.00 in 246.00 W/m2
09:35 55.9 °F 39.5 °F 30.06 in Calm   7.0 mph 54 % 0.00 in 364.00 W/m2
09:40 56.1 °F 39.7 °F 30.06 in Calm   5.0 mph 54 % 0.00 in 425.00 W/m2
09:45 56.2 °F 39.8 °F 30.06 in Calm   7.0 mph 54 % 0.00 in 380.00 W/m2
09:50 56.4 °F 40.5 °F 30.06 in SE 2.0 mph 6.0 mph 55 % 0.00 in 383.00 W/m2
09:55 56.6 °F 38.2 °F 30.07 in ESE 6.0 mph 8.0 mph 50 % 0.00 in 346.00 W/m2
10:00 57.0 °F 37.5 °F 30.07 in SE 6.0 mph 9.0 mph 48 % 0.00 in 269.00 W/m2
10:05 57.5 °F 38.5 °F 30.07 in Calm   6.0 mph 49 % 0.00 in 332.00 W/m2
10:10 57.8 °F 39.8 °F 30.07 in Calm   7.0 mph 51 % 0.00 in 265.00 W/m2
10:15 58.2 °F 39.7 °F 30.07 in Calm   6.0 mph 50 % 0.00 in 202.00 W/m2
10:20 58.4 °F 39.8 °F 30.07 in Calm   1.0 mph 50 % 0.00 in 216.00 W/m2
10:25 58.6 °F 39.0 °F 30.07 in Calm   4.0 mph 48 % 0.00 in 230.00 W/m2
10:30 58.7 °F 39.6 °F 30.07 in Calm   1.0 mph 49 % 0.00 in 265.00 W/m2
10:35 58.8 °F 40.7 °F 30.07 in Calm     51 % 0.00 in 250.00 W/m2
10:40 58.8 °F 41.7 °F 30.07 in Calm     53 % 0.00 in 260.00 W/m2
10:45 58.9 °F 40.8 °F 30.07 in Calm   1.0 mph 51 % 0.00 in 287.00 W/m2
10:50 58.9 °F 41.8 °F 30.07 in Calm     53 % 0.00 in 292.00 W/m2
10:55 58.9 °F 42.3 °F 30.06 in Calm     54 % 0.00 in 285.00 W/m2
11:00 59.0 °F 43.3 °F 30.06 in Calm     56 % 0.00 in 311.00 W/m2
11:05 59.1 °F 44.8 °F 30.06 in Calm   1.0 mph 59 % 0.00 in 302.00 W/m2
11:10 59.1 °F 44.8 °F 30.06 in Calm     59 % 0.00 in 348.00 W/m2
11:15 59.3 °F 44.5 °F 30.06 in Calm     58 % 0.00 in 415.00 W/m2
11:20 59.4 °F 44.2 °F 30.06 in Calm   4.0 mph 57 % 0.00 in 457.00 W/m2
11:25 59.5 °F 42.9 °F 30.06 in Calm     54 % 0.00 in 613.00 W/m2
11:26 59.6 °F 43.0 °F 30.06 in Calm     54 % 0.00 in 622.00 W/m2
11:31 59.8 °F 42.7 °F 30.06 in Calm     53 % 0.00 in 394.00 W/m2
11:36 60.0 °F 41.3 °F 30.06 in Calm   1.0 mph 50 % 0.00 in 204.00 W/m2
11:41 60.2 °F 41.0 °F 30.06 in Calm     49 % 0.00 in 183.00 W/m2
11:46 60.4 °F 42.2 °F 30.06 in Calm     51 % 0.00 in 325.00 W/m2
11:51 60.6 °F 44.4 °F 30.06 in Calm     55 % 0.00 in 397.00 W/m2
11:56 60.8 °F 45.0 °F 30.05 in Calm     56 % 0.00 in 230.00 W/m2
12:01 60.8 °F 43.1 °F 30.05 in Calm     52 % 0.00 in 510.00 W/m2
12:07 61.0 °F 43.8 °F 30.05 in Calm   5.0 mph 53 % 0.00 in 281.00 W/m2
12:08 61.0 °F 43.3 °F 30.05 in Calm   5.0 mph 52 % 0.00 in 251.00 W/m2
12:13 61.1 °F 41.3 °F 30.04 in Calm   7.0 mph 48 % 0.00 in 251.00 W/m2
12:18 61.4 °F 42.1 °F 30.04 in SE 2.0 mph 7.0 mph 49 % 0.00 in 364.00 W/m2
12:23 61.6 °F 42.3 °F 30.04 in SE 7.0 mph 9.0 mph 49 % 0.00 in 424.00 W/m2
12:28 61.8 °F 41.9 °F 30.03 in SE 6.0 mph 8.0 mph 48 % 0.00 in 232.00 W/m2
12:38 62.3 °F 43.4 °F 30.02 in ESE 4.0 mph 8.0 mph 50 % 0.00 in 541.00 W/m2
12:43 62.6 °F 42.1 °F 30.02 in SE 7.0 mph 13.0 mph 47 % 0.00 in 640.00 W/m2
12:48 62.8 °F 41.7 °F 30.02 in Calm   11.0 mph 46 % 0.00 in 480.00 W/m2
12:53 63.1 °F 43.1 °F 30.02 in ESE 6.0 mph 9.0 mph 48 % 0.00 in 387.00 W/m2
12:58 63.3 °F 42.8 °F 30.02 in ESE 6.0 mph 9.0 mph 47 % 0.00 in 264.00 W/m2
13:03 63.5 °F 42.4 °F 30.01 in Calm   9.0 mph 46 % 0.00 in 230.00 W/m2
13:08 63.7 °F 43.1 °F 30.01 in SE 6.0 mph 8.0 mph 47 % 0.00 in 279.00 W/m2
13:13 63.9 °F 44.9 °F 30.02 in Calm     50 % 0.00 in 246.00 W/m2
13:18 63.9 °F 46.5 °F 30.02 in Calm   2.0 mph 53 % 0.00 in 264.00 W/m2
13:23 63.9 °F 47.0 °F 30.02 in Calm     54 % 0.00 in 301.00 W/m2
13:28 63.9 °F 46.5 °F 30.02 in Calm   5.0 mph 53 % 0.00 in 225.00 W/m2
13:33 63.9 °F 47.4 °F 30.02 in Calm   5.0 mph 55 % 0.00 in 220.00 W/m2
13:38 63.9 °F 47.9 °F 30.02 in SE 1.0 mph 4.0 mph 56 % 0.00 in 192.00 W/m2
13:43 63.8 °F 46.8 °F 30.03 in South 4.0 mph 6.0 mph 54 % 0.00 in 179.00 W/m2
13:48 63.7 °F 45.8 °F 30.03 in Calm   4.0 mph 52 % 0.00 in 186.00 W/m2
13:53 63.6 °F 46.2 °F 30.03 in Calm   1.0 mph 53 % 0.00 in 169.00 W/m2
13:58 63.4 °F 46.0 °F 30.04 in Calm     53 % 0.00 in 178.00 W/m2
14:03 62.9 °F 46.0 °F 30.03 in Calm     54 % 0.00 in 156.00 W/m2
14:08 62.5 °F 46.6 °F 30.04 in Calm     56 % 0.00 in 134.00 W/m2
14:13 62.2 °F 47.3 °F 30.04 in Calm     58 % 0.00 in 139.00 W/m2
14:18 61.9 °F 47.9 °F 30.04 in Calm     60 % 0.00 in 135.00 W/m2
14:23 61.6 °F 48.0 °F 30.04 in Calm     61 % 0.00 in 130.00 W/m2
14:28 61.4 °F 49.5 °F 30.04 in SW 2.0 mph 2.0 mph 65 % 0.00 in 104.00 W/m2
14:33 61.1 °F 49.3 °F 30.04 in SSW 1.0 mph 5.0 mph 65 % 0.00 in 90.00 W/m2
14:38 60.9 °F 50.3 °F 30.04 in SSW 2.0 mph 3.0 mph 68 % 0.00 in 76.00 W/m2
14:43 60.7 °F 48.9 °F 30.04 in SSW 1.0 mph 5.0 mph 65 % 0.00 in 69.00 W/m2
14:48 60.6 °F 49.2 °F 30.03 in South 3.0 mph 6.0 mph 66 % 0.00 in 90.00 W/m2
14:53 60.5 °F 49.1 °F 30.03 in South 5.0 mph 7.0 mph 66 % 0.00 in 91.00 W/m2
14:59 60.5 °F 48.3 °F 30.04 in South 2.0 mph 8.0 mph 64 % 0.00 in 84.00 W/m2
15:04 60.5 °F 47.4 °F 30.04 in SSE 4.0 mph 8.0 mph 62 % 0.00 in 70.00 W/m2
15:09 60.4 °F 47.3 °F 30.04 in SSE 6.0 mph 6.0 mph 62 % 0.00 in 63.00 W/m2
15:14 60.4 °F 47.8 °F 30.05 in SSE 2.0 mph 5.0 mph 63 % 0.00 in 70.00 W/m2
15:19 60.3 °F 48.1 °F 30.05 in Calm   2.0 mph 64 % 0.00 in 72.00 W/m2
15:24 60.2 °F 48.0 °F 30.05 in SSE 2.0 mph 7.0 mph 64 % 0.00 in 63.00 W/m2
15:29 60.1 °F 47.9 °F 30.05 in Calm   6.0 mph 64 % 0.00 in 60.00 W/m2
15:34 60.0 °F 48.2 °F 30.05 in SSE 4.0 mph 7.0 mph 65 % 0.00 in 56.00 W/m2
15:39 59.9 °F 48.1 °F 30.04 in SSE 2.0 mph 6.0 mph 65 % 0.00 in 49.00 W/m2
15:44 59.8 °F 48.4 °F 30.05 in SSE 6.0 mph 9.0 mph 66 % 0.00 in 47.00 W/m2
15:49 59.6 °F 48.2 °F 30.05 in SSE 4.0 mph 7.0 mph 66 % 0.00 in 42.00 W/m2
15:54 59.5 °F 48.2 °F 30.05 in SSE 4.0 mph 6.0 mph 66 % 0.00 in 33.00 W/m2
15:59 59.3 °F 48.0 °F 30.04 in SE 8.0 mph 9.0 mph 66 % 0.00 in 32.00 W/m2
16:04 59.1 °F 47.8 °F 30.04 in Calm   7.0 mph 66 % 0.00 in 28.00 W/m2
16:09 59.0 °F 48.1 °F 30.04 in SE 1.0 mph 7.0 mph 67 % 0.00 in 25.00 W/m2
16:14 58.9 °F 48.0 °F 30.04 in SE 7.0 mph 9.0 mph 67 % 0.00 in 25.00 W/m2
16:19 58.9 °F 48.0 °F 30.04 in SE 5.0 mph 10.0 mph 67 % 0.00 in 25.00 W/m2
16:24 58.7 °F 48.2 °F 30.04 in SE 5.0 mph 8.0 mph 68 % 0.00 in 25.00 W/m2
16:29 58.6 °F 47.7 °F 30.04 in SE 6.0 mph 12.0 mph 67 % 0.00 in 16.00 W/m2
16:34 58.5 °F 47.6 °F 30.04 in SE 4.0 mph 11.0 mph 67 % 0.00 in 11.00 W/m2
16:39 58.4 °F 47.9 °F 30.05 in SE 7.0 mph 12.0 mph 68 % 0.00 in 5.00 W/m2
16:44 58.2 °F 47.3 °F 30.04 in ESE 7.0 mph 9.0 mph 67 % 0.00 in 0.00 W/m2
16:49 58.0 °F 47.1 °F 30.04 in SE 2.0 mph 11.0 mph 67 % 0.00 in 0.00 W/m2
16:54 57.9 °F 47.0 °F 30.04 in SE 8.0 mph 13.0 mph 67 % 0.00 in 0.00 W/m2
16:59 57.8 °F 46.9 °F 30.04 in SE 7.0 mph 12.0 mph 67 % 0.00 in 0.00 W/m2
17:04 57.7 °F 47.2 °F 30.04 in SE 6.0 mph 14.0 mph 68 % 0.00 in 0.00 W/m2
17:09 57.6 °F 46.7 °F 30.04 in Calm   9.0 mph 67 % 0.00 in 0.00 W/m2
17:14 57.6 °F 46.3 °F 30.05 in SE 4.0 mph 11.0 mph 66 % 0.00 in 0.00 W/m2
17:19 57.5 °F 46.2 °F 30.05 in SE 7.0 mph 12.0 mph 66 % 0.00 in 0.00 W/m2
17:24 57.5 °F 46.6 °F 30.05 in SE 4.0 mph 9.0 mph 67 % 0.00 in 0.00 W/m2
17:29 57.5 °F 46.2 °F 30.05 in SE 7.0 mph 11.0 mph 66 % 0.00 in 0.00 W/m2
17:34 57.6 °F 45.9 °F 30.04 in SE 8.0 mph 12.0 mph 65 % 0.00 in 0.00 W/m2
17:39 57.6 °F 45.5 °F 30.05 in SE 7.0 mph 11.0 mph 64 % 0.00 in 0.00 W/m2
17:45 57.7 °F 46.4 °F 30.05 in SE 7.0 mph 12.0 mph 66 % 0.00 in 0.00 W/m2
17:49 57.8 °F 46.5 °F 30.05 in SE 2.0 mph 11.0 mph 66 % 0.00 in 0.00 W/m2
17:54 57.8 °F 46.5 °F 30.05 in SE 6.0 mph 11.0 mph 66 % 0.00 in 0.00 W/m2
17:59 57.7 °F 46.4 °F 30.05 in SE 1.0 mph 9.0 mph 66 % 0.00 in 0.00 W/m2
18:04 57.7 °F 46.4 °F 30.05 in ESE 8.0 mph 13.0 mph 66 % 0.00 in 0.00 W/m2
18:09 57.7 °F 46.4 °F 30.04 in SE 4.0 mph 13.0 mph 66 % 0.00 in 0.00 W/m2
18:15 57.7 °F 46.4 °F 30.04 in SE 11.0 mph 13.0 mph 66 % 0.00 in 0.00 W/m2
18:20 57.7 °F 45.2 °F 30.04 in SE 4.0 mph 15.0 mph 63 % 0.00 in 0.00 W/m2
18:25 57.8 °F 45.7 °F 30.04 in SE 11.0 mph 12.0 mph 64 % 0.00 in 0.00 W/m2
18:30 57.8 °F 46.1 °F 30.04 in ESE 5.0 mph 11.0 mph 65 % 0.00 in 0.00 W/m2
18:35 57.8 °F 46.1 °F 30.05 in SE 7.0 mph 12.0 mph 65 % 0.00 in 0.00 W/m2
18:40 57.8 °F 46.1 °F 30.04 in SE 7.0 mph 12.0 mph 65 % 0.00 in 0.00 W/m2
18:45 57.8 °F 46.1 °F 30.04 in ESE 5.0 mph 9.0 mph 65 % 0.00 in 0.00 W/m2
18:50 57.7 °F 45.6 °F 30.05 in ESE 4.0 mph 9.0 mph 64 % 0.00 in 0.00 W/m2
18:55 57.7 °F 45.6 °F 30.04 in ESE 9.0 mph 11.0 mph 64 % 0.00 in 0.00 W/m2
19:00 57.7 °F 45.6 °F 30.04 in ESE 6.0 mph 9.0 mph 64 % 0.00 in 0.00 W/m2
19:05 57.7 °F 45.6 °F 30.05 in SE 7.0 mph 9.0 mph 64 % 0.00 in 0.00 W/m2
19:10 57.6 °F 45.1 °F 30.05 in SE 2.0 mph 9.0 mph 63 % 0.00 in 0.00 W/m2
19:15 57.6 °F 45.1 °F 30.04 in SE 9.0 mph 11.0 mph 63 % 0.00 in 0.00 W/m2
19:20 57.5 °F 45.0 °F 30.05 in SE 5.0 mph 12.0 mph 63 % 0.00 in 0.00 W/m2
19:25 57.5 °F 45.4 °F 30.05 in SE 6.0 mph 12.0 mph 64 % 0.00 in 0.00 W/m2
19:30 57.5 °F 45.0 °F 30.04 in SE 6.0 mph 11.0 mph 63 % 0.00 in 0.00 W/m2
19:35 57.5 °F 45.0 °F 30.04 in SE 2.0 mph 6.0 mph 63 % 0.00 in 0.00 W/m2
19:40 57.5 °F 45.0 °F 30.05 in SE 6.0 mph 9.0 mph 63 % 0.00 in 0.00 W/m2
19:45 57.5 °F 45.0 °F 30.05 in SE 6.0 mph 11.0 mph 63 % 0.00 in 0.00 W/m2
19:50 57.5 °F 45.0 °F 30.05 in SE 6.0 mph 11.0 mph 63 % 0.00 in 0.00 W/m2
19:51 57.5 °F 45.0 °F 30.05 in SE 6.0 mph 9.0 mph 63 % 0.00 in 0.00 W/m2
19:56 57.5 °F 44.6 °F 30.04 in SE 4.0 mph 6.0 mph 62 % 0.00 in 0.00 W/m2
20:01 57.4 °F 44.9 °F 30.05 in SE 5.0 mph 8.0 mph 63 % 0.00 in 0.00 W/m2
20:06 57.2 °F 44.7 °F 30.05 in Calm   7.0 mph 63 % 0.00 in 0.00 W/m2
20:11 57.1 °F 44.6 °F 30.04 in SE 5.0 mph 11.0 mph 63 % 0.00 in 0.00 W/m2
20:16 57.0 °F 44.1 °F 30.04 in SE 9.0 mph 11.0 mph 62 % 0.00 in 0.00 W/m2
20:21 57.0 °F 44.1 °F 30.04 in SE 5.0 mph 7.0 mph 62 % 0.00 in 0.00 W/m2
20:26 57.0 °F 43.7 °F 30.04 in SE 7.0 mph 9.0 mph 61 % 0.00 in 0.00 W/m2
20:31 57.1 °F 43.8 °F 30.05 in SE 6.0 mph 8.0 mph 61 % 0.00 in 0.00 W/m2
20:36 57.1 °F 44.2 °F 30.05 in Calm   7.0 mph 62 % 0.00 in 0.00 W/m2
20:41 57.1 °F 44.6 °F 30.05 in Calm   5.0 mph 63 % 0.00 in 0.00 W/m2
20:46 57.0 °F 44.1 °F 30.05 in Calm   5.0 mph 62 % 0.00 in 0.00 W/m2
20:51 56.9 °F 44.0 °F 30.05 in Calm     62 % 0.00 in 0.00 W/m2
20:56 56.8 °F 44.3 °F 30.05 in SE 4.0 mph 5.0 mph 63 % 0.00 in 0.00 W/m2
21:02 56.7 °F 44.3 °F 30.05 in Calm   6.0 mph 63 % 0.00 in 0.00 W/m2
21:07 56.7 °F 43.4 °F 30.05 in SE 4.0 mph 6.0 mph 61 % 0.00 in 0.00 W/m2
21:12 56.6 °F 43.3 °F 30.06 in Calm   6.0 mph 61 % 0.00 in 0.00 W/m2
21:17 56.6 °F 43.8 °F 30.06 in Calm   7.0 mph 62 % 0.00 in 0.00 W/m2
21:22 56.6 °F 43.8 °F 30.06 in Calm   7.0 mph 62 % 0.00 in 0.00 W/m2
21:27 56.6 °F 44.2 °F 30.06 in Calm   5.0 mph 63 % 0.00 in 0.00 W/m2
21:32 56.6 °F 43.3 °F 30.06 in Calm   7.0 mph 61 % 0.00 in 0.00 W/m2
21:37 56.6 °F 44.2 °F 30.05 in SE 2.0 mph 7.0 mph 63 % 0.00 in 0.00 W/m2
21:42 56.6 °F 43.8 °F 30.04 in SE 4.0 mph 8.0 mph 62 % 0.00 in 0.00 W/m2
21:47 56.6 °F 43.3 °F 30.04 in SE 5.0 mph 9.0 mph 61 % 0.00 in 0.00 W/m2
21:52 56.6 °F 42.9 °F 30.04 in SE 4.0 mph 11.0 mph 60 % 0.00 in 0.00 W/m2
21:58 56.7 °F 43.4 °F 30.04 in SE 5.0 mph 12.0 mph 61 % 0.00 in 0.00 W/m2
22:03 56.8 °F 43.5 °F 30.04 in Calm   8.0 mph 61 % 0.00 in 0.00 W/m2
22:08 56.9 °F 43.6 °F 30.05 in ESE 2.0 mph 9.0 mph 61 % 0.00 in 0.00 W/m2
22:13 56.9 °F 42.3 °F 30.07 in Calm   7.0 mph 58 % 0.00 in 0.00 W/m2
22:18 57.0 °F 43.3 °F 30.06 in Calm     60 % 0.00 in 0.00 W/m2
22:23 57.1 °F 43.4 °F 30.06 in Calm   5.0 mph 60 % 0.00 in 0.00 W/m2
22:28 57.0 °F 43.7 °F 30.06 in Calm   8.0 mph 61 % 0.00 in 0.00 W/m2
22:33 56.9 °F 44.0 °F 30.07 in Calm   4.0 mph 62 % 0.00 in 0.00 W/m2
22:38 56.8 °F 43.5 °F 30.06 in SE 6.0 mph 7.0 mph 61 % 0.00 in 0.00 W/m2
22:43 56.7 °F 43.4 °F 30.06 in SE 4.0 mph 8.0 mph 61 % 0.00 in 0.00 W/m2
22:48 56.5 °F 43.2 °F 30.06 in Calm   7.0 mph 61 % 0.00 in 0.00 W/m2
22:53 56.4 °F 43.1 °F 30.06 in Calm   12.0 mph 61 % 0.00 in 0.00 W/m2
22:58 56.3 °F 42.6 °F 30.07 in SE 7.0 mph 7.0 mph 60 % 0.00 in 0.00 W/m2
23:03 56.3 °F 43.0 °F 30.07 in SE 4.0 mph 6.0 mph 61 % 0.00 in 0.00 W/m2
23:08 56.3 °F 43.5 °F 30.07 in Calm   8.0 mph 62 % 0.00 in 0.00 W/m2
23:13 56.2 °F 43.0 °F 30.07 in Calm   8.0 mph 61 % 0.00 in 0.00 W/m2
23:18 56.3 °F 43.0 °F 30.07 in Calm   9.0 mph 61 % 0.00 in 0.00 W/m2
23:23 56.3 °F 43.5 °F 30.07 in SE 4.0 mph 6.0 mph 62 % 0.00 in 0.00 W/m2
23:28 56.4 °F 43.6 °F 30.06 in SE 7.0 mph 9.0 mph 62 % 0.00 in 0.00 W/m2
23:33 56.4 °F 43.1 °F 30.06 in SE 8.0 mph 9.0 mph 61 % 0.00 in 0.00 W/m2
23:38 56.5 °F 43.2 °F 30.06 in Calm   13.0 mph 61 % 0.00 in 0.00 W/m2
23:43 56.6 °F 43.3 °F 30.06 in SE 6.0 mph 13.0 mph 61 % 0.00 in 0.00 W/m2
23:48 56.7 °F 42.5 °F 30.05 in SE 11.0 mph 15.0 mph 59 % 0.00 in 0.00 W/m2
23:53 56.9 °F 42.3 °F 30.05 in SE 6.0 mph 12.0 mph 58 % 0.00 in 0.00 W/m2
23:58 57.0 °F 41.9 °F 30.05 in SE 7.0 mph 14.0 mph 57 % 0.00 in 0.00 W/m2
Juneau County Weather
Compliments of Weather Underground - 4.5 mb
 WU-history PHP script courtesy of   Juneau County Weather.
powered by Cumulus v1.9.3 (1059)
Ambient Weather VWS v14.00
Top Contact Website Map Copyright © 2007 - 2018 Foresthillweather.com Never base important decisions on this or any weather information obtained from the Internet